createdAt,value
2018-09-15T00:02:15.650Z,31.73
2018-09-15T00:04:44.914Z,31.80
2018-09-15T00:07:14.628Z,32.40
2018-09-15T00:09:43.734Z,27.33
2018-09-15T00:12:12.931Z,29.50
2018-09-15T00:14:42.135Z,29.50
2018-09-15T00:17:11.669Z,31.67
2018-09-15T00:19:40.783Z,34.20
2018-09-15T00:22:09.930Z,30.23
2018-09-15T00:24:39.009Z,30.23
2018-09-15T00:27:08.183Z,32.77
2018-09-15T00:29:37.297Z,29.40
2018-09-15T00:32:06.673Z,33.30
2018-09-15T00:34:35.847Z,34.90
2018-09-15T00:37:04.983Z,33.23
2018-09-15T00:39:34.772Z,34.87
2018-09-15T00:42:03.958Z,39.57
2018-09-15T00:44:33.106Z,32.50
2018-09-15T00:47:02.339Z,33.40
2018-09-15T00:49:31.456Z,33.03
2018-09-15T00:52:00.572Z,31.13
2018-09-15T00:54:29.728Z,33.03
2018-09-15T00:56:58.914Z,34.77
2018-09-15T00:59:28.040Z,33.60
2018-09-15T01:01:58.053Z,31.53
2018-09-15T01:04:27.190Z,33.00
2018-09-15T01:06:56.468Z,31.77
2018-09-15T01:09:25.652Z,35.13
2018-09-15T01:11:54.818Z,34.07
2018-09-15T01:14:24.013Z,32.00
2018-09-15T01:16:53.150Z,33.53
2018-09-15T01:19:22.371Z,38.60
2018-09-15T01:21:52.078Z,33.03
2018-09-15T01:24:21.234Z,34.87
2018-09-15T01:26:50.443Z,37.00
2018-09-15T01:29:19.523Z,33.03
2018-09-15T01:31:48.636Z,35.27
2018-09-15T01:34:18.010Z,36.23
2018-09-15T01:36:47.114Z,34.80
2018-09-15T01:39:17.163Z,36.87
2018-09-15T01:41:46.300Z,35.00
2018-09-15T01:44:15.392Z,32.47
2018-09-15T01:46:44.498Z,36.00
2018-09-15T01:49:13.602Z,37.40
2018-09-15T01:51:42.794Z,35.03
2018-09-15T01:54:11.877Z,37.63
2018-09-15T01:56:41.015Z,43.93
2018-09-15T01:59:10.110Z,36.80
2018-09-15T02:01:39.214Z,31.00
2018-09-15T02:04:08.756Z,29.13
2018-09-15T02:06:38.200Z,38.93
2018-09-15T02:09:11.769Z,41.60
2018-09-15T02:11:40.865Z,40.97
2018-09-15T02:14:10.029Z,35.50
2018-09-15T02:16:39.220Z,38.67
2018-09-15T02:19:08.416Z,41.70
2018-09-15T02:21:38.114Z,36.87
2018-09-15T02:24:07.236Z,36.73
2018-09-15T02:26:36.365Z,37.70
2018-09-15T02:29:05.577Z,35.03
2018-09-15T02:31:34.656Z,37.50
2018-09-15T02:34:03.834Z,35.73
2018-09-15T02:36:32.985Z,46.40
2018-09-15T02:39:02.321Z,32.20
2018-09-15T02:41:31.471Z,44.20
2018-09-15T02:44:00.573Z,44.90
2018-09-15T02:46:29.723Z,38.00
2018-09-15T02:48:58.839Z,38.70
2018-09-15T02:51:27.934Z,39.47
2018-09-15T02:53:57.064Z,37.07
2018-09-15T02:56:26.165Z,33.07
2018-09-15T02:58:55.267Z,42.17
2018-09-15T03:01:24.384Z,42.80
2018-09-15T03:03:53.481Z,40.73
2018-09-15T03:06:22.635Z,40.10
2018-09-15T03:08:51.761Z,38.87
2018-09-15T03:11:21.067Z,33.67
2018-09-15T03:13:50.167Z,36.13
2018-09-15T03:16:19.287Z,35.37
2018-09-15T03:18:48.771Z,35.60
2018-09-15T03:21:17.905Z,32.23
2018-09-15T03:23:47.021Z,36.37
2018-09-15T03:26:16.141Z,35.00
2018-09-15T03:28:45.283Z,38.77
2018-09-15T03:31:14.380Z,30.10
2018-09-15T03:33:43.476Z,33.37
2018-09-15T03:36:12.607Z,34.97
2018-09-15T03:38:41.710Z,36.60
2018-09-15T03:41:10.821Z,35.83
2018-09-15T03:43:39.921Z,37.47
2018-09-15T03:46:09.047Z,37.27
2018-09-15T03:48:38.193Z,38.27
2018-09-15T03:51:08.327Z,36.27
2018-09-15T03:53:37.464Z,35.03
2018-09-15T03:56:06.604Z,44.53
2018-09-15T03:58:35.699Z,35.30
2018-09-15T04:01:04.821Z,36.03
2018-09-15T04:03:33.900Z,41.67
2018-09-15T04:06:03.050Z,35.37
2018-09-15T04:08:32.160Z,40.07
2018-09-15T04:11:01.261Z,34.77
2018-09-15T04:13:30.785Z,38.60
2018-09-15T04:15:59.947Z,34.30
2018-09-15T04:18:29.042Z,35.97
2018-09-15T04:20:58.626Z,33.70
2018-09-15T04:23:27.793Z,41.13
2018-09-15T04:25:56.889Z,31.47
2018-09-15T04:28:26.051Z,35.43
2018-09-15T04:30:55.121Z,34.20
2018-09-15T04:33:24.237Z,39.03
2018-09-15T04:35:53.305Z,43.63
2018-09-15T04:38:22.421Z,36.50
2018-09-15T04:40:51.529Z,37.40
2018-09-15T04:43:20.647Z,37.30
2018-09-15T04:45:49.755Z,37.03
2018-09-15T04:48:18.865Z,36.53
2018-09-15T04:50:47.965Z,37.17
2018-09-15T04:53:17.043Z,35.03
2018-09-15T04:55:46.165Z,30.90
2018-09-15T04:58:15.257Z,32.10
2018-09-15T05:00:44.415Z,42.40
2018-09-15T05:03:13.591Z,33.03
2018-09-15T05:05:42.833Z,37.80
2018-09-15T05:08:12.067Z,33.83
2018-09-15T05:10:41.201Z,28.93
2018-09-15T05:13:10.317Z,31.13
2018-09-15T05:15:39.534Z,29.13
2018-09-15T05:18:08.636Z,26.77
2018-09-15T05:20:37.768Z,36.20
2018-09-15T05:23:06.977Z,35.60
2018-09-15T05:25:36.094Z,36.07
2018-09-15T05:28:05.532Z,31.20
2018-09-15T05:30:34.683Z,32.70
2018-09-15T05:33:03.779Z,28.17
2018-09-15T05:35:32.892Z,35.77
2018-09-15T05:38:02.023Z,32.97
2018-09-15T05:40:31.110Z,35.63
2018-09-15T05:43:00.205Z,30.63
2018-09-15T05:45:29.335Z,28.40
2018-09-15T05:47:58.476Z,34.53
2018-09-15T05:50:27.698Z,33.70
2018-09-15T05:52:56.849Z,30.23
2018-09-15T05:55:25.962Z,30.33
2018-09-15T05:57:55.066Z,32.30
2018-09-15T06:00:24.289Z,33.20
2018-09-15T06:02:53.358Z,36.53
2018-09-15T06:05:22.513Z,29.77
2018-09-15T06:07:51.596Z,27.67
2018-09-15T06:10:20.684Z,24.83
2018-09-15T06:12:49.813Z,26.63
2018-09-15T06:15:18.929Z,27.23
2018-09-15T06:17:48.899Z,27.43
2018-09-15T06:20:17.987Z,29.50
2018-09-15T06:22:47.986Z,30.23
2018-09-15T06:25:17.088Z,24.67
2018-09-15T06:27:46.199Z,25.77
2018-09-15T06:30:15.486Z,30.03
2018-09-15T06:32:44.602Z,26.77
2018-09-15T06:35:13.770Z,26.27
2018-09-15T06:37:42.962Z,26.87
2018-09-15T06:40:12.102Z,23.23
2018-09-15T06:42:41.208Z,26.37
2018-09-15T06:45:10.324Z,24.93
2018-09-15T06:47:39.459Z,28.03
2018-09-15T06:50:08.586Z,26.60
2018-09-15T06:52:38.039Z,26.37
2018-09-15T06:55:07.228Z,27.33
2018-09-15T06:57:36.325Z,24.47
2018-09-15T07:00:05.881Z,30.63
2018-09-15T07:02:34.969Z,26.10
2018-09-15T07:05:04.107Z,23.60
2018-09-15T07:07:33.312Z,27.43
2018-09-15T07:10:02.620Z,28.50
2018-09-15T07:12:31.840Z,27.10
2018-09-15T07:15:00.964Z,29.60
2018-09-15T07:17:30.079Z,28.67
2018-09-15T07:19:59.820Z,30.47
2018-09-15T07:22:28.883Z,28.37
2018-09-15T07:24:57.989Z,25.03
2018-09-15T07:27:27.087Z,29.33
2018-09-15T07:29:56.217Z,26.60
2018-09-15T07:32:25.687Z,26.80
2018-09-15T07:34:54.874Z,29.17
2018-09-15T07:37:23.918Z,29.53
2018-09-15T07:39:53.040Z,24.47
2018-09-15T07:42:22.234Z,27.50
2018-09-15T07:44:51.450Z,29.17
2018-09-15T07:47:20.498Z,25.00
2018-09-15T07:49:49.636Z,29.63
2018-09-15T07:52:18.816Z,29.77
2018-09-15T07:54:47.918Z,27.27
2018-09-15T07:57:17.040Z,26.47
2018-09-15T07:59:46.142Z,32.77
2018-09-15T08:02:21.742Z,27.63
2018-09-15T08:04:51.484Z,29.43
2018-09-15T08:07:20.588Z,26.60
2018-09-15T08:09:49.698Z,27.93
2018-09-15T08:12:19.319Z,26.93
2018-09-15T08:14:48.510Z,29.70
2018-09-15T08:17:17.632Z,28.67
2018-09-15T08:19:46.738Z,27.67
2018-09-15T08:22:16.074Z,22.73
2018-09-15T08:24:45.200Z,26.30
2018-09-15T08:27:14.350Z,22.90
2018-09-15T08:29:43.805Z,17.53
2018-09-15T08:32:12.904Z,19.50
2018-09-15T08:34:42.014Z,18.13
2018-09-15T08:37:11.114Z,14.83
2018-09-15T08:39:40.242Z,14.40
2018-09-15T08:42:09.322Z,14.80
2018-09-15T08:44:38.425Z,11.83
2018-09-15T08:47:07.578Z,12.00
2018-09-15T08:49:36.664Z,9.33
2018-09-15T08:52:05.746Z,21.43
2018-09-15T08:54:34.863Z,9.60
2018-09-15T08:57:04.537Z,15.37
2018-09-15T08:59:33.734Z,9.10
2018-09-15T09:02:02.824Z,13.77
2018-09-15T09:04:31.913Z,11.60
2018-09-15T09:07:01.048Z,13.90
2018-09-15T09:09:30.119Z,9.03
2018-09-15T09:11:59.190Z,11.67
2018-09-15T09:14:28.284Z,13.60
2018-09-15T09:16:57.390Z,17.93
2018-09-15T09:19:26.592Z,12.17
2018-09-15T09:21:55.705Z,10.80
2018-09-15T09:24:25.574Z,12.10
2018-09-15T09:26:54.662Z,12.13
2018-09-15T09:29:23.758Z,10.53
2018-09-15T09:31:53.042Z,10.73
2018-09-15T09:34:22.118Z,9.90
2018-09-15T09:36:51.230Z,12.10
2018-09-15T09:39:20.404Z,10.50
2018-09-15T09:41:49.526Z,12.40
2018-09-15T09:44:18.605Z,10.10
2018-09-15T09:46:47.710Z,12.07
2018-09-15T09:49:16.807Z,11.00
2018-09-15T09:51:45.908Z,13.20
2018-09-15T09:54:15.083Z,12.80
2018-09-15T09:56:44.186Z,15.00
2018-09-15T09:59:13.352Z,9.87
2018-09-15T10:01:47.778Z,9.87
2018-09-15T10:04:16.890Z,7.60
2018-09-15T10:06:45.986Z,9.93
2018-09-15T10:09:16.118Z,9.83
2018-09-15T10:11:45.253Z,10.20
2018-09-15T10:14:14.374Z,10.80
2018-09-15T10:16:43.470Z,10.50
2018-09-15T10:19:12.610Z,7.43
2018-09-15T10:21:41.690Z,10.03
2018-09-15T10:24:10.769Z,6.90
2018-09-15T10:26:40.456Z,7.47
2018-09-15T10:29:09.539Z,7.67
2018-09-15T10:31:38.686Z,8.83
2018-09-15T10:34:07.844Z,8.57
2018-09-15T10:36:36.938Z,10.20
2018-09-15T10:39:08.246Z,7.03
2018-09-15T10:41:37.406Z,10.00
2018-09-15T10:44:06.636Z,6.17
2018-09-15T10:46:35.894Z,15.73
2018-09-15T10:49:05.167Z,8.60
2018-09-15T10:51:34.296Z,11.10
2018-09-15T10:54:03.420Z,8.10
2018-09-15T10:56:32.584Z,6.37
2018-09-15T10:59:01.725Z,7.67
2018-09-15T11:01:30.920Z,9.37
2018-09-15T11:03:59.999Z,6.83
2018-09-15T11:06:29.130Z,7.43
2018-09-15T11:08:58.222Z,10.87
2018-09-15T11:11:27.331Z,7.87
2018-09-15T11:13:56.447Z,6.40
2018-09-15T11:16:26.460Z,8.83
2018-09-15T11:18:55.599Z,6.30
2018-09-15T11:21:24.742Z,7.20
2018-09-15T11:23:54.376Z,7.30
2018-09-15T11:26:23.523Z,7.40
2018-09-15T11:28:52.825Z,6.70
2018-09-15T11:31:21.920Z,9.50
2018-09-15T11:33:50.994Z,9.53
2018-09-15T11:36:20.073Z,8.47
2018-09-15T11:38:49.190Z,12.70
2018-09-15T11:41:18.439Z,9.00
2018-09-15T11:43:47.523Z,6.53
2018-09-15T11:46:16.548Z,7.13
2018-09-15T11:48:45.636Z,6.60
2018-09-15T11:51:14.777Z,10.80
2018-09-15T11:53:43.939Z,12.33
2018-09-15T11:56:13.030Z,8.63
2018-09-15T11:58:42.105Z,10.53
2018-09-15T12:01:11.216Z,7.93
2018-09-15T12:03:40.307Z,5.50
2018-09-15T12:06:09.372Z,8.37
2018-09-15T12:08:38.421Z,7.27
2018-09-15T12:11:07.703Z,5.40
2018-09-15T12:13:36.790Z,6.23
2018-09-15T12:16:05.852Z,6.33
2018-09-15T12:18:34.996Z,10.53
2018-09-15T12:21:04.157Z,6.40
2018-09-15T12:23:33.607Z,5.90
2018-09-15T12:26:02.745Z,7.83
2018-09-15T12:28:31.829Z,6.70
2018-09-15T12:31:01.014Z,6.00
2018-09-15T12:33:30.318Z,5.83
2018-09-15T12:35:59.310Z,7.30
2018-09-15T12:38:28.370Z,6.17
2018-09-15T12:40:57.511Z,11.37
2018-09-15T12:43:26.569Z,6.27
2018-09-15T12:45:56.673Z,6.43
2018-09-15T12:48:25.827Z,10.17
2018-09-15T12:50:54.957Z,7.23
2018-09-15T12:53:24.165Z,6.93
2018-09-15T12:55:53.289Z,9.00
2018-09-15T12:58:22.418Z,10.83
2018-09-15T13:00:51.537Z,7.50
2018-09-15T13:03:20.614Z,6.83
2018-09-15T13:05:49.714Z,6.70
2018-09-15T13:08:18.837Z,6.50
2018-09-15T13:10:48.049Z,6.33
2018-09-15T13:13:17.143Z,7.97
2018-09-15T13:15:46.314Z,5.10
2018-09-15T13:18:15.445Z,9.03
2018-09-15T13:20:44.527Z,8.30
2018-09-15T13:23:13.611Z,5.47
2018-09-15T13:25:43.058Z,8.00
2018-09-15T13:28:12.117Z,4.97
2018-09-15T13:30:41.253Z,8.60
2018-09-15T13:33:10.982Z,4.97
2018-09-15T13:35:40.101Z,5.73
2018-09-15T13:38:09.180Z,6.63
2018-09-15T13:40:38.278Z,5.80
2018-09-15T13:43:07.365Z,6.30
2018-09-15T13:45:36.460Z,5.93
2018-09-15T13:48:05.583Z,6.17
2018-09-15T13:50:34.748Z,5.77
2018-09-15T13:53:03.821Z,5.30
2018-09-15T13:55:32.940Z,6.20
2018-09-15T13:58:02.001Z,6.20
2018-09-15T14:00:31.129Z,5.23
2018-09-15T14:03:00.221Z,5.87
2018-09-15T14:05:29.363Z,5.50
2018-09-15T14:07:58.492Z,6.03
2018-09-15T14:10:27.594Z,6.33
2018-09-15T14:12:56.686Z,5.70
2018-09-15T14:15:25.803Z,10.90
2018-09-15T14:17:54.928Z,7.57
2018-09-15T14:20:24.058Z,5.97
2018-09-15T14:22:53.188Z,6.77
2018-09-15T14:25:22.306Z,5.77
2018-09-15T14:27:51.433Z,9.87
2018-09-15T14:30:20.538Z,15.07
2018-09-15T14:32:49.674Z,5.50
2018-09-15T14:35:18.994Z,7.50
2018-09-15T14:37:48.080Z,6.30
2018-09-15T14:40:17.176Z,6.80
2018-09-15T14:42:46.263Z,5.80
2018-09-15T14:45:15.470Z,5.47
2018-09-15T14:47:44.588Z,7.17
2018-09-15T14:50:13.706Z,7.60
2018-09-15T14:52:43.396Z,7.60
2018-09-15T14:55:12.587Z,5.83
2018-09-15T14:57:41.626Z,6.40
2018-09-15T15:00:10.838Z,5.70
2018-09-15T15:02:40.146Z,6.73
2018-09-15T15:05:09.212Z,5.97
2018-09-15T15:07:38.347Z,5.60
2018-09-15T15:10:07.390Z,7.30
2018-09-15T15:12:36.478Z,5.60
2018-09-15T15:15:05.584Z,6.03
2018-09-15T15:17:34.714Z,4.90
2018-09-15T15:20:03.848Z,5.13
2018-09-15T15:22:32.918Z,8.60
2018-09-15T15:25:03.390Z,5.97
2018-09-15T15:27:32.498Z,5.53
2018-09-15T15:30:01.587Z,9.53
2018-09-15T15:32:30.735Z,5.60
2018-09-15T15:34:59.826Z,6.30
2018-09-15T15:37:29.444Z,5.93
2018-09-15T15:39:58.528Z,7.63
2018-09-15T15:42:27.644Z,7.40
2018-09-15T15:44:56.714Z,5.67
2018-09-15T15:47:25.830Z,5.80
2018-09-15T15:49:54.940Z,6.33
2018-09-15T15:52:24.062Z,6.00
2018-09-15T15:54:53.483Z,7.57
2018-09-15T15:57:22.568Z,5.43
2018-09-15T15:59:51.679Z,8.60
2018-09-15T16:02:20.862Z,5.67
2018-09-15T16:04:50.490Z,5.50
2018-09-15T16:07:19.774Z,5.03
2018-09-15T16:09:48.908Z,5.30
2018-09-15T16:12:18.014Z,7.50
2018-09-15T16:14:47.274Z,4.77
2018-09-15T16:17:16.466Z,5.00
2018-09-15T16:19:45.554Z,7.53
2018-09-15T16:22:14.659Z,4.43
2018-09-15T16:24:43.814Z,4.87
2018-09-15T16:27:12.894Z,7.73
2018-09-15T16:29:41.996Z,4.70
2018-09-15T16:32:11.108Z,5.93
2018-09-15T16:34:40.184Z,4.47
2018-09-15T16:37:09.297Z,6.63
2018-09-15T16:39:39.481Z,7.70
2018-09-15T16:42:08.674Z,5.43
2018-09-15T16:44:37.786Z,6.47
2018-09-15T16:47:06.910Z,4.57
2018-09-15T16:49:36.350Z,4.87
2018-09-15T16:52:05.487Z,4.13
2018-09-15T16:54:34.577Z,5.27
2018-09-15T16:57:03.725Z,4.10
2018-09-15T16:59:32.884Z,4.43
2018-09-15T17:02:01.986Z,3.93
2018-09-15T17:04:31.122Z,4.67
2018-09-15T17:07:00.336Z,3.73
2018-09-15T17:09:29.557Z,4.53
2018-09-15T17:11:58.693Z,5.50
2018-09-15T17:14:27.786Z,5.30
2018-09-15T17:16:57.891Z,3.53
2018-09-15T17:19:26.991Z,3.80
2018-09-15T17:21:56.227Z,5.33
2018-09-15T17:24:25.329Z,4.73
2018-09-15T17:26:54.503Z,3.80
2018-09-15T17:29:23.573Z,4.17
2018-09-15T17:31:53.258Z,4.10
2018-09-15T17:34:22.550Z,4.53
2018-09-15T17:36:51.711Z,5.60
2018-09-15T17:39:20.809Z,7.33
2018-09-15T17:41:50.047Z,5.13
2018-09-15T17:44:19.140Z,4.90
2018-09-15T17:46:48.247Z,3.50
2018-09-15T17:49:17.351Z,4.17
2018-09-15T17:51:47.277Z,5.87
2018-09-15T17:54:16.406Z,3.93
2018-09-15T17:56:45.473Z,4.10
2018-09-15T17:59:14.541Z,3.57
2018-09-15T18:01:43.641Z,5.50
2018-09-15T18:04:12.711Z,5.10
2018-09-15T18:06:41.853Z,4.33
2018-09-15T18:09:11.013Z,4.43
2018-09-15T18:11:40.044Z,4.33
2018-09-15T18:14:09.119Z,4.30
2018-09-15T18:16:38.217Z,3.63
2018-09-15T18:19:07.383Z,5.03
2018-09-15T18:21:36.539Z,4.93
2018-09-15T18:24:05.683Z,4.60
2018-09-15T18:26:34.815Z,3.60
2018-09-15T18:29:03.888Z,3.77
2018-09-15T18:31:32.957Z,8.20
2018-09-15T18:34:02.075Z,15.20
2018-09-15T18:36:31.290Z,53.67
2018-09-15T18:39:00.234Z,46.33
2018-09-15T18:41:29.336Z,20.60
2018-09-15T18:43:58.503Z,51.30
2018-09-15T18:46:27.580Z,22.30
2018-09-15T18:48:56.652Z,10.70
2018-09-15T18:51:25.746Z,7.17
2018-09-15T18:53:54.871Z,11.30
2018-09-15T18:56:24.230Z,9.07
2018-09-15T18:58:53.308Z,7.60
2018-09-15T19:01:22.410Z,4.87
2018-09-15T19:03:51.751Z,4.07
2018-09-15T19:06:20.836Z,4.47
2018-09-15T19:08:49.902Z,6.00
2018-09-15T19:11:19.026Z,6.00
2018-09-15T19:13:48.118Z,5.60
2018-09-15T19:16:17.216Z,8.33
2018-09-15T19:18:46.966Z,9.80
2018-09-15T19:21:16.150Z,16.13
2018-09-15T19:23:45.610Z,8.13
2018-09-15T19:26:14.722Z,10.07
2018-09-15T19:28:43.780Z,8.87
2018-09-15T19:31:12.907Z,9.80
2018-09-15T19:33:41.992Z,11.10
2018-09-15T19:36:11.080Z,10.10
2018-09-15T19:38:40.181Z,9.13
2018-09-15T19:41:09.294Z,10.07
2018-09-15T19:43:38.436Z,6.87
2018-09-15T19:46:07.693Z,6.83
2018-09-15T19:48:36.784Z,15.90
2018-09-15T19:51:05.937Z,9.63
2018-09-15T19:53:35.033Z,5.70
2018-09-15T19:56:04.308Z,5.43
2018-09-15T19:58:33.391Z,13.63
2018-09-15T20:01:02.463Z,11.77
2018-09-15T20:03:31.569Z,10.13
2018-09-15T20:06:00.674Z,5.83
2018-09-15T20:08:29.739Z,6.83
2018-09-15T20:10:58.857Z,13.27
2018-09-15T20:13:27.939Z,8.83
2018-09-15T20:15:55.837Z,9.73
2018-09-15T20:18:23.769Z,9.20
2018-09-15T20:20:51.693Z,5.17
2018-09-15T20:23:20.807Z,7.40
2018-09-15T20:25:49.903Z,5.80
2018-09-15T20:28:18.995Z,7.70
2018-09-15T20:30:48.297Z,5.80
2018-09-15T20:33:17.482Z,7.50
2018-09-15T20:35:46.499Z,11.70
2018-09-15T20:38:15.629Z,8.50
2018-09-15T20:40:44.729Z,9.50
2018-09-15T20:43:13.837Z,13.40
2018-09-15T20:45:42.960Z,8.10
2018-09-15T20:48:12.065Z,11.10
2018-09-15T20:50:41.209Z,7.47
2018-09-15T20:53:10.339Z,6.60
2018-09-15T20:55:39.449Z,9.13
2018-09-15T20:58:08.952Z,10.90
2018-09-15T21:00:38.071Z,13.30
2018-09-15T21:03:07.196Z,9.03
2018-09-15T21:05:36.343Z,19.70
2018-09-15T21:08:05.551Z,13.00
2018-09-15T21:10:34.667Z,9.83
2018-09-15T21:13:03.781Z,8.07
2018-09-15T21:15:32.887Z,5.50
2018-09-15T21:18:01.972Z,6.10
2018-09-15T21:20:31.108Z,10.47
2018-09-15T21:23:00.205Z,9.20
2018-09-15T21:25:29.284Z,10.60
2018-09-15T21:27:58.394Z,10.70
2018-09-15T21:30:27.519Z,8.17
2018-09-15T21:32:56.634Z,5.60
2018-09-15T21:35:25.730Z,6.50
2018-09-15T21:37:54.824Z,6.00
2018-09-15T21:40:23.920Z,5.77
2018-09-15T21:42:53.015Z,9.50
2018-09-15T21:45:22.127Z,5.27
2018-09-15T21:47:51.287Z,7.80
2018-09-15T21:50:20.405Z,6.10
2018-09-15T21:52:49.596Z,7.73
2018-09-15T21:55:18.737Z,10.20
2018-09-15T21:57:47.850Z,8.63
2018-09-15T22:00:17.823Z,7.90
2018-09-15T22:02:46.971Z,10.10
2018-09-15T22:05:16.127Z,15.40
2018-09-15T22:07:45.237Z,12.23
2018-09-15T22:10:14.393Z,12.17
2018-09-15T22:12:43.483Z,14.80
2018-09-15T22:15:28.917Z,10.53
2018-09-15T22:17:58.887Z,10.10
2018-09-15T22:20:28.153Z,12.27
2018-09-15T22:22:57.277Z,9.50
2018-09-15T22:25:26.352Z,7.30
2018-09-15T22:27:55.471Z,6.63
2018-09-15T22:30:24.550Z,7.47
2018-09-15T22:32:53.635Z,7.93
2018-09-15T22:35:22.755Z,10.10
2018-09-15T22:37:51.813Z,8.63
2018-09-15T22:40:20.874Z,8.40
2018-09-15T22:42:49.957Z,8.77
2018-09-15T22:45:19.051Z,7.83
2018-09-15T22:47:48.119Z,7.37
2018-09-15T22:50:17.205Z,7.13
2018-09-15T22:52:46.283Z,9.93
2018-09-15T22:55:15.381Z,7.90
2018-09-15T22:57:44.463Z,14.70
2018-09-15T23:00:13.567Z,7.87
2018-09-15T23:02:42.884Z,13.67
2018-09-15T23:05:12.019Z,11.03
2018-09-15T23:07:41.128Z,9.80
2018-09-15T23:10:11.285Z,11.60
2018-09-15T23:12:40.453Z,10.73
2018-09-15T23:15:09.577Z,11.83
2018-09-15T23:17:38.657Z,10.87
2018-09-15T23:20:07.817Z,17.10
2018-09-15T23:22:36.924Z,15.40
2018-09-15T23:25:06.025Z,9.90
2018-09-15T23:27:35.111Z,9.97
2018-09-15T23:30:04.479Z,12.80
2018-09-15T23:32:33.577Z,11.00
2018-09-15T23:35:02.655Z,14.37
2018-09-15T23:37:31.925Z,12.33
2018-09-15T23:40:01.025Z,13.27
2018-09-15T23:42:30.557Z,9.67
2018-09-15T23:44:59.641Z,9.80
2018-09-15T23:47:28.729Z,12.83
2018-09-15T23:49:57.831Z,8.60
2018-09-15T23:52:26.987Z,9.50
2018-09-15T23:54:56.198Z,10.10
2018-09-15T23:57:25.249Z,9.73
2018-09-15T23:59:54.329Z,12.30
